sensor_id;sensor_type;location;lat;lon;timestamp;pressure;altitude;pressure_sealevel;temperature;humidity
11395;BME280;5753;54.402;10.220;2023-08-30T00:00:57;100827.09;;;26.60;42.93
11395;BME280;5753;54.402;10.220;2023-08-30T00:03:23;100822.13;;;26.54;42.97
11395;BME280;5753;54.402;10.220;2023-08-30T00:05:49;100819.75;;;26.48;42.67
11395;BME280;5753;54.402;10.220;2023-08-30T00:08:15;100814.00;;;26.40;42.91
11395;BME280;5753;54.402;10.220;2023-08-30T00:10:49;100814.31;;;26.33;42.76
11395;BME280;5753;54.402;10.220;2023-08-30T00:13:15;100819.88;;;26.27;42.62
11395;BME280;5753;54.402;10.220;2023-08-30T00:15:41;100822.91;;;26.20;42.66
11395;BME280;5753;54.402;10.220;2023-08-30T00:18:07;100816.91;;;26.16;42.66
11395;BME280;5753;54.402;10.220;2023-08-30T00:20:33;100812.09;;;26.07;42.37
11395;BME280;5753;54.402;10.220;2023-08-30T00:23:00;100820.66;;;26.12;42.72
11395;BME280;5753;54.402;10.220;2023-08-30T00:25:26;100809.16;;;26.13;43.11
11395;BME280;5753;54.402;10.220;2023-08-30T00:27:52;100810.84;;;26.14;42.89
11395;BME280;5753;54.402;10.220;2023-08-30T00:30:18;100813.50;;;26.14;42.80
11395;BME280;5753;54.402;10.220;2023-08-30T00:32:44;100810.84;;;26.14;42.76
11395;BME280;5753;54.402;10.220;2023-08-30T00:35:10;100816.28;;;26.11;43.15
11395;BME280;5753;54.402;10.220;2023-08-30T00:37:36;100811.00;;;26.11;43.08
11395;BME280;5753;54.402;10.220;2023-08-30T00:40:03;100814.22;;;25.99;43.98
11395;BME280;5753;54.402;10.220;2023-08-30T00:42:29;100805.09;;;26.06;43.18
11395;BME280;5753;54.402;10.220;2023-08-30T00:44:55;100811.47;;;26.02;43.10
11395;BME280;5753;54.402;10.220;2023-08-30T00:47:22;100813.66;;;25.92;42.60
11395;BME280;5753;54.402;10.220;2023-08-30T00:49:48;100811.25;;;25.88;42.89
11395;BME280;5753;54.402;10.220;2023-08-30T00:52:14;100808.53;;;25.89;42.47
11395;BME280;5753;54.402;10.220;2023-08-30T00:54:41;100810.91;;;25.77;42.56
11395;BME280;5753;54.402;10.220;2023-08-30T00:57:07;100810.06;;;25.76;42.60
11395;BME280;5753;54.402;10.220;2023-08-30T00:59:34;100814.00;;;25.67;42.65
11395;BME280;5753;54.402;10.220;2023-08-30T01:02:01;100810.53;;;25.65;42.81
11395;BME280;5753;54.402;10.220;2023-08-30T01:04:28;100809.34;;;25.72;43.07
11395;BME280;5753;54.402;10.220;2023-08-30T01:06:54;100809.84;;;25.81;42.92
11395;BME280;5753;54.402;10.220;2023-08-30T01:09:20;100801.44;;;25.72;42.78
11395;BME280;5753;54.402;10.220;2023-08-30T01:12:04;100804.28;;;25.68;42.58
11395;BME280;5753;54.402;10.220;2023-08-30T01:14:39;100808.97;;;25.61;42.80
11395;BME280;5753;54.402;10.220;2023-08-30T01:17:08;100803.97;;;25.55;42.87
11395;BME280;5753;54.402;10.220;2023-08-30T01:19:49;100808.03;;;25.62;42.45
11395;BME280;5753;54.402;10.220;2023-08-30T01:22:38;100800.34;;;25.58;42.64
11395;BME280;5753;54.402;10.220;2023-08-30T01:27:47;100792.84;;;25.30;42.56
11395;BME280;5753;54.402;10.220;2023-08-30T01:30:14;100789.69;;;25.22;42.65
11395;BME280;5753;54.402;10.220;2023-08-30T01:32:42;100793.53;;;25.15;42.98
11395;BME280;5753;54.402;10.220;2023-08-30T01:35:09;100783.00;;;25.15;42.83
11395;BME280;5753;54.402;10.220;2023-08-30T01:37:36;100776.28;;;25.07;43.02
11395;BME280;5753;54.402;10.220;2023-08-30T01:40:04;100782.59;;;25.03;43.36
11395;BME280;5753;54.402;10.220;2023-08-30T01:42:32;100775.69;;;25.01;43.22
11395;BME280;5753;54.402;10.220;2023-08-30T01:45:01;100770.25;;;25.04;43.14
11395;BME280;5753;54.402;10.220;2023-08-30T01:47:30;100786.56;;;24.73;44.38
11395;BME280;5753;54.402;10.220;2023-08-30T01:49:57;100776.00;;;24.93;43.35
11395;BME280;5753;54.402;10.220;2023-08-30T01:52:24;100773.03;;;25.01;42.75
11395;BME280;5753;54.402;10.220;2023-08-30T01:54:52;100788.19;;;24.96;43.19
11395;BME280;5753;54.402;10.220;2023-08-30T01:57:21;100782.34;;;24.89;42.68
11395;BME280;5753;54.402;10.220;2023-08-30T01:59:47;100780.75;;;24.85;43.14
11395;BME280;5753;54.402;10.220;2023-08-30T02:02:13;100776.75;;;24.76;42.70
11395;BME280;5753;54.402;10.220;2023-08-30T02:04:39;100775.50;;;24.65;42.70
11395;BME280;5753;54.402;10.220;2023-08-30T02:07:20;100771.31;;;24.61;42.71
11395;BME280;5753;54.402;10.220;2023-08-30T02:09:57;100767.97;;;24.56;43.06
11395;BME280;5753;54.402;10.220;2023-08-30T02:12:26;100769.69;;;24.57;43.29
11395;BME280;5753;54.402;10.220;2023-08-30T02:14:54;100767.84;;;24.59;43.04
11395;BME280;5753;54.402;10.220;2023-08-30T02:17:20;100759.28;;;24.54;43.07
11395;BME280;5753;54.402;10.220;2023-08-30T02:19:48;100773.66;;;24.46;43.42
11395;BME280;5753;54.402;10.220;2023-08-30T02:22:14;100774.56;;;24.45;43.34
11395;BME280;5753;54.402;10.220;2023-08-30T02:24:40;100763.75;;;24.52;42.92
11395;BME280;5753;54.402;10.220;2023-08-30T02:27:06;100761.69;;;24.60;43.25
11395;BME280;5753;54.402;10.220;2023-08-30T02:29:32;100752.31;;;24.53;44.22
11395;BME280;5753;54.402;10.220;2023-08-30T02:31:58;100742.88;;;25.06;42.99
11395;BME280;5753;54.402;10.220;2023-08-30T02:34:24;100747.38;;;25.04;43.38
11395;BME280;5753;54.402;10.220;2023-08-30T02:36:50;100742.78;;;25.09;43.00
11395;BME280;5753;54.402;10.220;2023-08-30T02:39:16;100735.59;;;25.13;43.52
11395;BME280;5753;54.402;10.220;2023-08-30T02:41:42;100747.78;;;25.16;43.31
11395;BME280;5753;54.402;10.220;2023-08-30T02:44:10;100745.63;;;25.24;43.00
11395;BME280;5753;54.402;10.220;2023-08-30T02:46:36;100748.50;;;25.19;42.88
11395;BME280;5753;54.402;10.220;2023-08-30T02:49:03;100752.75;;;25.22;42.73
11395;BME280;5753;54.402;10.220;2023-08-30T02:51:29;100744.72;;;25.25;42.72
11395;BME280;5753;54.402;10.220;2023-08-30T02:53:55;100748.78;;;25.13;43.29
11395;BME280;5753;54.402;10.220;2023-08-30T02:56:23;100748.13;;;25.27;42.81
11395;BME280;5753;54.402;10.220;2023-08-30T02:58:51;100739.91;;;25.33;42.91
11395;BME280;5753;54.402;10.220;2023-08-30T03:01:17;100741.41;;;25.57;42.65
11395;BME280;5753;54.402;10.220;2023-08-30T03:03:43;100735.06;;;25.61;43.05
11395;BME280;5753;54.402;10.220;2023-08-30T03:06:10;100741.41;;;25.76;42.51
11395;BME280;5753;54.402;10.220;2023-08-30T03:08:36;100733.66;;;25.90;42.33
11395;BME280;5753;54.402;10.220;2023-08-30T03:11:13;100735.75;;;25.84;42.46
11395;BME280;5753;54.402;10.220;2023-08-30T03:13:39;100729.22;;;25.73;42.62
11395;BME280;5753;54.402;10.220;2023-08-30T03:16:15;100728.59;;;25.86;42.39
11395;BME280;5753;54.402;10.220;2023-08-30T03:18:43;100728.13;;;25.95;42.21
11395;BME280;5753;54.402;10.220;2023-08-30T03:21:09;100728.91;;;25.80;42.62
11395;BME280;5753;54.402;10.220;2023-08-30T03:23:36;100733.56;;;25.75;42.84
11395;BME280;5753;54.402;10.220;2023-08-30T03:26:15;100734.97;;;25.82;42.68
11395;BME280;5753;54.402;10.220;2023-08-30T03:28:43;100736.44;;;25.87;42.89
11395;BME280;5753;54.402;10.220;2023-08-30T03:31:16;100742.00;;;26.17;42.34
11395;BME280;5753;54.402;10.220;2023-08-30T03:33:42;100745.28;;;26.40;41.97
11395;BME280;5753;54.402;10.220;2023-08-30T03:36:12;100737.97;;;26.27;42.06
11395;BME280;5753;54.402;10.220;2023-08-30T03:38:39;100737.97;;;26.27;42.04
11395;BME280;5753;54.402;10.220;2023-08-30T03:41:06;100724.03;;;26.24;42.28
11395;BME280;5753;54.402;10.220;2023-08-30T03:43:33;100721.41;;;26.24;42.31
11395;BME280;5753;54.402;10.220;2023-08-30T03:46:03;100723.81;;;26.28;42.05
11395;BME280;5753;54.402;10.220;2023-08-30T03:48:29;100720.72;;;26.38;41.96
11395;BME280;5753;54.402;10.220;2023-08-30T03:50:56;100721.47;;;26.22;42.15
11395;BME280;5753;54.402;10.220;2023-08-30T03:53:22;100721.00;;;26.31;42.20
11395;BME280;5753;54.402;10.220;2023-08-30T03:55:49;100707.03;;;26.47;41.92
11395;BME280;5753;54.402;10.220;2023-08-30T03:58:16;100712.03;;;26.35;42.22
11395;BME280;5753;54.402;10.220;2023-08-30T04:00:42;100711.97;;;26.70;41.46
11395;BME280;5753;54.402;10.220;2023-08-30T04:03:09;100712.03;;;26.53;41.56
11395;BME280;5753;54.402;10.220;2023-08-30T04:05:36;100709.53;;;26.50;41.64
11395;BME280;5753;54.402;10.220;2023-08-30T04:08:04;100700.28;;;26.07;42.65
11395;BME280;5753;54.402;10.220;2023-08-30T04:10:34;100702.81;;;26.25;42.04
11395;BME280;5753;54.402;10.220;2023-08-30T04:13:00;100698.63;;;26.21;42.26
11395;BME280;5753;54.402;10.220;2023-08-30T04:15:26;100684.75;;;26.35;41.89
11395;BME280;5753;54.402;10.220;2023-08-30T04:17:52;100694.91;;;26.43;41.74
11395;BME280;5753;54.402;10.220;2023-08-30T04:20:18;100696.78;;;26.41;41.22
11395;BME280;5753;54.402;10.220;2023-08-30T04:22:44;100695.75;;;26.26;41.90
11395;BME280;5753;54.402;10.220;2023-08-30T04:25:10;100688.53;;;26.29;41.85
11395;BME280;5753;54.402;10.220;2023-08-30T04:27:36;100688.75;;;26.25;42.05
11395;BME280;5753;54.402;10.220;2023-08-30T04:30:03;100685.44;;;26.39;41.89
11395;BME280;5753;54.402;10.220;2023-08-30T04:32:29;100684.81;;;26.51;41.94
11395;BME280;5753;54.402;10.220;2023-08-30T04:34:55;100682.16;;;26.33;42.38
11395;BME280;5753;54.402;10.220;2023-08-30T04:37:21;100684.56;;;26.38;42.17
11395;BME280;5753;54.402;10.220;2023-08-30T04:39:48;100693.97;;;26.44;42.05
11395;BME280;5753;54.402;10.220;2023-08-30T04:42:17;100684.00;;;26.49;41.96
11395;BME280;5753;54.402;10.220;2023-08-30T04:44:43;100684.09;;;26.30;42.29
11395;BME280;5753;54.402;10.220;2023-08-30T04:47:09;100687.91;;;26.59;41.84
11395;BME280;5753;54.402;10.220;2023-08-30T04:49:35;100675.00;;;26.53;42.10
11395;BME280;5753;54.402;10.220;2023-08-30T04:52:01;100687.97;;;26.57;42.05
11395;BME280;5753;54.402;10.220;2023-08-30T04:54:27;100689.28;;;26.66;41.76
11395;BME280;5753;54.402;10.220;2023-08-30T04:56:53;100696.53;;;26.78;41.55
11395;BME280;5753;54.402;10.220;2023-08-30T04:59:19;100691.34;;;26.77;41.73
11395;BME280;5753;54.402;10.220;2023-08-30T05:01:45;100682.47;;;26.93;41.19
11395;BME280;5753;54.402;10.220;2023-08-30T05:04:12;100677.34;;;26.90;41.30
11395;BME280;5753;54.402;10.220;2023-08-30T05:06:38;100673.78;;;26.91;41.39
11395;BME280;5753;54.402;10.220;2023-08-30T05:09:04;100684.53;;;26.88;41.76
11395;BME280;5753;54.402;10.220;2023-08-30T05:11:30;100682.13;;;26.84;41.17
11395;BME280;5753;54.402;10.220;2023-08-30T05:13:56;100680.75;;;26.44;41.85
11395;BME280;5753;54.402;10.220;2023-08-30T05:16:22;100679.22;;;26.88;41.27
11395;BME280;5753;54.402;10.220;2023-08-30T05:18:48;100677.69;;;27.02;40.97
11395;BME280;5753;54.402;10.220;2023-08-30T05:21:15;100684.94;;;26.98;41.37
11395;BME280;5753;54.402;10.220;2023-08-30T05:23:41;100684.53;;;26.88;41.21
11395;BME280;5753;54.402;10.220;2023-08-30T05:26:11;100682.28;;;26.98;41.13
11395;BME280;5753;54.402;10.220;2023-08-30T05:28:39;100674.34;;;26.98;41.12
11395;BME280;5753;54.402;10.220;2023-08-30T05:31:05;100674.41;;;26.96;41.36
11395;BME280;5753;54.402;10.220;2023-08-30T05:33:32;100680.00;;;27.08;41.21
11395;BME280;5753;54.402;10.220;2023-08-30T05:35:58;100672.06;;;26.90;41.82
11395;BME280;5753;54.402;10.220;2023-08-30T05:38:24;100680.94;;;26.89;41.79
11395;BME280;5753;54.402;10.220;2023-08-30T05:40:50;100685.09;;;27.11;41.00
11395;BME280;5753;54.402;10.220;2023-08-30T05:43:16;100683.75;;;27.04;41.29
11395;BME280;5753;54.402;10.220;2023-08-30T05:45:43;100699.59;;;27.35;41.13
11395;BME280;5753;54.402;10.220;2023-08-30T05:48:10;100694.16;;;27.07;41.45
11395;BME280;5753;54.402;10.220;2023-08-30T05:50:36;100690.56;;;27.39;41.27
11395;BME280;5753;54.402;10.220;2023-08-30T05:53:02;100693.66;;;27.47;40.86
11395;BME280;5753;54.402;10.220;2023-08-30T05:55:29;100685.44;;;27.52;40.49
11395;BME280;5753;54.402;10.220;2023-08-30T05:57:55;100672.09;;;27.38;40.58
11395;BME280;5753;54.402;10.220;2023-08-30T06:00:21;100676.38;;;27.72;40.60
11395;BME280;5753;54.402;10.220;2023-08-30T06:02:48;100671.53;;;27.94;39.70
11395;BME280;5753;54.402;10.220;2023-08-30T06:05:14;100667.19;;;27.93;39.91
11395;BME280;5753;54.402;10.220;2023-08-30T06:07:40;100673.47;;;28.06;39.67
11395;BME280;5753;54.402;10.220;2023-08-30T06:10:06;100668.81;;;27.80;39.92
11395;BME280;5753;54.402;10.220;2023-08-30T06:12:32;100660.03;;;28.09;39.82
11395;BME280;5753;54.402;10.220;2023-08-30T06:14:59;100671.88;;;27.88;39.74
11395;BME280;5753;54.402;10.220;2023-08-30T06:17:25;100658.59;;;27.74;39.85
11395;BME280;5753;54.402;10.220;2023-08-30T06:19:51;100661.78;;;27.65;40.51
11395;BME280;5753;54.402;10.220;2023-08-30T06:22:17;100656.31;;;27.68;40.30
11395;BME280;5753;54.402;10.220;2023-08-30T06:24:43;100660.25;;;27.90;39.78
11395;BME280;5753;54.402;10.220;2023-08-30T06:27:09;100658.69;;;28.02;39.72
11395;BME280;5753;54.402;10.220;2023-08-30T06:29:35;100654.53;;;28.12;39.34
11395;BME280;5753;54.402;10.220;2023-08-30T06:32:02;100651.19;;;27.65;40.45
11395;BME280;5753;54.402;10.220;2023-08-30T06:34:29;100641.88;;;27.57;40.65
11395;BME280;5753;54.402;10.220;2023-08-30T06:36:55;100641.47;;;27.79;40.32
11395;BME280;5753;54.402;10.220;2023-08-30T06:39:21;100637.31;;;28.05;39.98
11395;BME280;5753;54.402;10.220;2023-08-30T06:41:48;100640.09;;;28.32;39.43
11395;BME280;5753;54.402;10.220;2023-08-30T06:44:14;100650.38;;;28.22;39.37
11395;BME280;5753;54.402;10.220;2023-08-30T06:46:41;100635.84;;;28.58;38.94
11395;BME280;5753;54.402;10.220;2023-08-30T06:49:07;100640.13;;;28.02;39.78
11395;BME280;5753;54.402;10.220;2023-08-30T06:51:35;100638.13;;;28.50;39.17
11395;BME280;5753;54.402;10.220;2023-08-30T06:54:01;100642.47;;;28.65;39.12
11395;BME280;5753;54.402;10.220;2023-08-30T06:56:28;100645.28;;;28.76;38.40
11395;BME280;5753;54.402;10.220;2023-08-30T06:58:54;100646.81;;;29.09;38.32
11395;BME280;5753;54.402;10.220;2023-08-30T07:01:20;100637.94;;;28.96;38.43
11395;BME280;5753;54.402;10.220;2023-08-30T07:03:46;100638.69;;;28.98;38.65
11395;BME280;5753;54.402;10.220;2023-08-30T07:06:12;100646.06;;;29.07;38.67
11395;BME280;5753;54.402;10.220;2023-08-30T07:08:38;100647.31;;;29.28;38.49
11395;BME280;5753;54.402;10.220;2023-08-30T07:11:05;100651.66;;;29.43;37.91
11395;BME280;5753;54.402;10.220;2023-08-30T07:13:31;100647.03;;;28.92;38.44
11395;BME280;5753;54.402;10.220;2023-08-30T07:15:57;100656.59;;;29.35;38.31
11395;BME280;5753;54.402;10.220;2023-08-30T07:18:23;100646.34;;;29.43;38.35
11395;BME280;5753;54.402;10.220;2023-08-30T07:20:49;100650.66;;;29.71;37.89
11395;BME280;5753;54.402;10.220;2023-08-30T07:23:15;100645.97;;;30.02;37.24
11395;BME280;5753;54.402;10.220;2023-08-30T07:25:41;100650.41;;;30.01;37.24
11395;BME280;5753;54.402;10.220;2023-08-30T07:28:08;100646.31;;;30.23;36.43
11395;BME280;5753;54.402;10.220;2023-08-30T07:30:34;100644.59;;;30.47;36.88
11395;BME280;5753;54.402;10.220;2023-08-30T07:33:01;100646.09;;;30.51;36.87
11395;BME280;5753;54.402;10.220;2023-08-30T07:35:27;100645.13;;;30.52;36.86
11395;BME280;5753;54.402;10.220;2023-08-30T07:37:53;100643.69;;;30.97;36.22
11395;BME280;5753;54.402;10.220;2023-08-30T07:40:19;100642.41;;;31.03;36.13
11395;BME280;5753;54.402;10.220;2023-08-30T07:42:46;100641.31;;;31.42;35.09
11395;BME280;5753;54.402;10.220;2023-08-30T07:45:13;100642.59;;;31.60;34.77
11395;BME280;5753;54.402;10.220;2023-08-30T07:47:39;100644.06;;;31.29;34.23
11395;BME280;5753;54.402;10.220;2023-08-30T07:50:06;100635.09;;;31.66;34.44
11395;BME280;5753;54.402;10.220;2023-08-30T07:52:32;100637.28;;;31.60;34.28
11395;BME280;5753;54.402;10.220;2023-08-30T07:54:58;100639.69;;;31.28;34.72
11395;BME280;5753;54.402;10.220;2023-08-30T07:57:24;100643.13;;;31.05;34.42
11395;BME280;5753;54.402;10.220;2023-08-30T07:59:50;100637.56;;;31.45;34.07
11395;BME280;5753;54.402;10.220;2023-08-30T08:02:16;100643.44;;;30.77;34.78
11395;BME280;5753;54.402;10.220;2023-08-30T08:04:42;100646.56;;;31.55;34.50
11395;BME280;5753;54.402;10.220;2023-08-30T08:07:09;100645.06;;;31.40;34.19
11395;BME280;5753;54.402;10.220;2023-08-30T08:09:35;100643.00;;;32.02;33.29
11395;BME280;5753;54.402;10.220;2023-08-30T08:12:01;100646.00;;;32.33;33.27
11395;BME280;5753;54.402;10.220;2023-08-30T08:14:27;100653.44;;;32.05;32.88
11395;BME280;5753;54.402;10.220;2023-08-30T08:16:53;100644.31;;;31.97;32.66
11395;BME280;5753;54.402;10.220;2023-08-30T08:19:19;100653.47;;;31.22;33.01
11395;BME280;5753;54.402;10.220;2023-08-30T08:21:47;100655.00;;;32.08;32.67
11395;BME280;5753;54.402;10.220;2023-08-30T08:24:13;100649.88;;;32.51;32.02
11395;BME280;5753;54.402;10.220;2023-08-30T08:26:39;100655.50;;;32.02;32.27
11395;BME280;5753;54.402;10.220;2023-08-30T08:29:06;100648.56;;;32.34;31.71
11395;BME280;5753;54.402;10.220;2023-08-30T08:31:32;100657.03;;;31.93;31.55
11395;BME280;5753;54.402;10.220;2023-08-30T08:34:09;100650.66;;;32.07;31.34
11395;BME280;5753;54.402;10.220;2023-08-30T08:36:37;100649.25;;;31.79;32.41
11395;BME280;5753;54.402;10.220;2023-08-30T08:39:03;100652.88;;;31.54;32.69
11395;BME280;5753;54.402;10.220;2023-08-30T08:41:39;100650.91;;;31.08;32.78
11395;BME280;5753;54.402;10.220;2023-08-30T08:44:08;100654.38;;;31.69;32.17
11395;BME280;5753;54.402;10.220;2023-08-30T08:46:39;100657.16;;;32.49;31.13
11395;BME280;5753;54.402;10.220;2023-08-30T08:49:15;100660.44;;;32.52;31.09
11395;BME280;5753;54.402;10.220;2023-08-30T08:51:43;100662.97;;;32.54;31.23
11395;BME280;5753;54.402;10.220;2023-08-30T08:54:10;100667.50;;;32.65;30.58
11395;BME280;5753;54.402;10.220;2023-08-30T08:56:37;100653.03;;;32.56;30.25
11395;BME280;5753;54.402;10.220;2023-08-30T08:59:05;100660.88;;;33.25;30.01
11395;BME280;5753;54.402;10.220;2023-08-30T09:01:35;100654.00;;;32.55;29.71
11395;BME280;5753;54.402;10.220;2023-08-30T09:04:06;100656.38;;;33.25;30.14
11395;BME280;5753;54.402;10.220;2023-08-30T09:06:33;100656.03;;;33.07;30.48
11395;BME280;5753;54.402;10.220;2023-08-30T09:09:00;100648.06;;;32.96;29.51
11395;BME280;5753;54.402;10.220;2023-08-30T09:11:26;100658.78;;;32.85;30.46
11395;BME280;5753;54.402;10.220;2023-08-30T09:13:52;100666.16;;;32.70;31.04
11395;BME280;5753;54.402;10.220;2023-08-30T09:16:18;100653.16;;;32.43;30.66
11395;BME280;5753;54.402;10.220;2023-08-30T09:18:44;100667.50;;;32.07;31.49
11395;BME280;5753;54.402;10.220;2023-08-30T09:21:11;100664.41;;;31.78;32.12
11395;BME280;5753;54.402;10.220;2023-08-30T09:23:38;100664.59;;;32.79;30.44
11395;BME280;5753;54.402;10.220;2023-08-30T09:26:04;100657.63;;;33.10;30.67
11395;BME280;5753;54.402;10.220;2023-08-30T09:28:31;100652.75;;;33.26;29.63
11395;BME280;5753;54.402;10.220;2023-08-30T09:30:58;100652.22;;;33.75;28.75
11395;BME280;5753;54.402;10.220;2023-08-30T09:33:33;100655.16;;;33.72;29.02
11395;BME280;5753;54.402;10.220;2023-08-30T09:36:00;100654.91;;;34.17;29.38
11395;BME280;5753;54.402;10.220;2023-08-30T09:38:26;100653.34;;;34.35;28.46
11395;BME280;5753;54.402;10.220;2023-08-30T09:41:05;100652.06;;;34.09;28.79
11395;BME280;5753;54.402;10.220;2023-08-30T09:43:33;100654.91;;;33.43;29.44
11395;BME280;5753;54.402;10.220;2023-08-30T09:46:03;100650.47;;;32.99;29.74
11395;BME280;5753;54.402;10.220;2023-08-30T09:48:32;100655.91;;;33.20;30.07
11395;BME280;5753;54.402;10.220;2023-08-30T09:50:59;100652.66;;;33.80;29.42
11395;BME280;5753;54.402;10.220;2023-08-30T09:53:30;100649.22;;;33.69;29.69
11395;BME280;5753;54.402;10.220;2023-08-30T09:55:59;100649.75;;;34.04;29.03
11395;BME280;5753;54.402;10.220;2023-08-30T09:58:28;100644.34;;;33.95;28.59
11395;BME280;5753;54.402;10.220;2023-08-30T10:00:55;100639.50;;;33.25;29.16
11395;BME280;5753;54.402;10.220;2023-08-30T10:03:22;100639.31;;;33.05;29.94
11395;BME280;5753;54.402;10.220;2023-08-30T10:05:48;100634.56;;;34.05;28.83
11395;BME280;5753;54.402;10.220;2023-08-30T10:08:15;100632.88;;;34.55;28.49
11395;BME280;5753;54.402;10.220;2023-08-30T10:10:41;100620.34;;;33.84;28.29
11395;BME280;5753;54.402;10.220;2023-08-30T10:13:07;100626.03;;;33.90;28.60
11395;BME280;5753;54.402;10.220;2023-08-30T10:15:37;100627.94;;;33.67;28.86
11395;BME280;5753;54.402;10.220;2023-08-30T10:18:06;100624.72;;;33.09;29.89
11395;BME280;5753;54.402;10.220;2023-08-30T10:20:33;100628.16;;;33.75;29.23
11395;BME280;5753;54.402;10.220;2023-08-30T10:23:01;100631.16;;;34.03;28.53
11395;BME280;5753;54.402;10.220;2023-08-30T10:25:30;100630.31;;;33.82;29.28
11395;BME280;5753;54.402;10.220;2023-08-30T10:27:58;100635.03;;;33.57;29.06
11395;BME280;5753;54.402;10.220;2023-08-30T10:30:25;100625.22;;;33.99;28.62
11395;BME280;5753;54.402;10.220;2023-08-30T10:32:52;100624.66;;;34.47;28.30
11395;BME280;5753;54.402;10.220;2023-08-30T10:35:19;100625.50;;;34.17;28.91
11395;BME280;5753;54.402;10.220;2023-08-30T10:37:55;100629.88;;;34.18;28.74
11395;BME280;5753;54.402;10.220;2023-08-30T10:40:22;100623.09;;;34.14;29.10
11395;BME280;5753;54.402;10.220;2023-08-30T10:42:59;100633.59;;;33.85;29.43
11395;BME280;5753;54.402;10.220;2023-08-30T10:45:26;100627.56;;;34.65;28.35
11395;BME280;5753;54.402;10.220;2023-08-30T10:47:56;100635.28;;;33.86;29.13
11395;BME280;5753;54.402;10.220;2023-08-30T10:50:31;100630.09;;;33.73;29.41
11395;BME280;5753;54.402;10.220;2023-08-30T10:52:58;100623.66;;;33.97;29.58
11395;BME280;5753;54.402;10.220;2023-08-30T10:55:24;100635.59;;;34.34;28.87
11395;BME280;5753;54.402;10.220;2023-08-30T10:58:04;100638.31;;;33.82;29.62
11395;BME280;5753;54.402;10.220;2023-08-30T11:00:33;100631.66;;;34.38;28.77
11395;BME280;5753;54.402;10.220;2023-08-30T11:02:59;100624.03;;;32.96;30.20
11395;BME280;5753;54.402;10.220;2023-08-30T11:05:26;100625.16;;;32.82;29.53
11395;BME280;5753;54.402;10.220;2023-08-30T11:07:53;100629.13;;;32.54;29.74
11395;BME280;5753;54.402;10.220;2023-08-30T11:10:21;100629.66;;;31.91;30.19
11395;BME280;5753;54.402;10.220;2023-08-30T11:12:48;100623.06;;;32.64;28.94
11395;BME280;5753;54.402;10.220;2023-08-30T11:15:15;100618.22;;;32.69;29.60
11395;BME280;5753;54.402;10.220;2023-08-30T11:17:42;100624.78;;;32.42;30.05
11395;BME280;5753;54.402;10.220;2023-08-30T11:20:13;100627.09;;;31.89;29.41
11395;BME280;5753;54.402;10.220;2023-08-30T11:22:45;100621.91;;;33.11;28.82
11395;BME280;5753;54.402;10.220;2023-08-30T11:25:13;100612.41;;;32.41;29.31
11395;BME280;5753;54.402;10.220;2023-08-30T11:27:39;100616.41;;;32.92;28.53
11395;BME280;5753;54.402;10.220;2023-08-30T11:30:07;100612.31;;;33.63;27.83
11395;BME280;5753;54.402;10.220;2023-08-30T11:32:39;100610.75;;;33.49;27.98
11395;BME280;5753;54.402;10.220;2023-08-30T11:35:06;100612.25;;;34.16;26.89
11395;BME280;5753;54.402;10.220;2023-08-30T11:37:33;100617.78;;;33.18;27.91
11395;BME280;5753;54.402;10.220;2023-08-30T11:40:00;100618.00;;;34.72;26.85
11395;BME280;5753;54.402;10.220;2023-08-30T11:42:26;100604.31;;;35.25;26.41
11395;BME280;5753;54.402;10.220;2023-08-30T11:44:53;100604.13;;;35.94;25.66
11395;BME280;5753;54.402;10.220;2023-08-30T11:47:26;100599.91;;;36.48;23.98
11395;BME280;5753;54.402;10.220;2023-08-30T11:49:55;100600.81;;;35.53;23.73
11395;BME280;5753;54.402;10.220;2023-08-30T11:52:25;100600.19;;;35.79;23.63
11395;BME280;5753;54.402;10.220;2023-08-30T11:54:52;100603.59;;;36.00;23.09
11395;BME280;5753;54.402;10.220;2023-08-30T11:57:19;100596.56;;;36.26;23.52
11395;BME280;5753;54.402;10.220;2023-08-30T11:59:45;100589.81;;;36.22;23.01
11395;BME280;5753;54.402;10.220;2023-08-30T12:02:16;100588.25;;;37.30;22.23
11395;BME280;5753;54.402;10.220;2023-08-30T12:04:44;100592.41;;;37.68;22.54
11395;BME280;5753;54.402;10.220;2023-08-30T12:07:24;100581.81;;;37.40;21.52
11395;BME280;5753;54.402;10.220;2023-08-30T12:09:51;100591.06;;;36.93;22.84
11395;BME280;5753;54.402;10.220;2023-08-30T12:12:17;100593.25;;;36.79;22.91
11395;BME280;5753;54.402;10.220;2023-08-30T12:14:43;100593.16;;;35.78;23.46
11395;BME280;5753;54.402;10.220;2023-08-30T12:17:09;100596.56;;;35.60;24.08
11395;BME280;5753;54.402;10.220;2023-08-30T12:19:38;100589.22;;;35.24;24.44
11395;BME280;5753;54.402;10.220;2023-08-30T12:22:06;100588.50;;;35.02;24.87
11395;BME280;5753;54.402;10.220;2023-08-30T12:24:46;100588.19;;;36.02;24.41
11395;BME280;5753;54.402;10.220;2023-08-30T12:27:13;100581.00;;;36.40;23.31
11395;BME280;5753;54.402;10.220;2023-08-30T12:29:39;100583.13;;;34.22;25.14
11395;BME280;5753;54.402;10.220;2023-08-30T12:32:06;100576.75;;;32.65;27.00
11395;BME280;5753;54.402;10.220;2023-08-30T12:34:33;100574.13;;;33.40;26.01
11395;BME280;5753;54.402;10.220;2023-08-30T12:36:59;100577.28;;;34.78;24.95
11395;BME280;5753;54.402;10.220;2023-08-30T12:39:26;100572.16;;;35.63;24.02
11395;BME280;5753;54.402;10.220;2023-08-30T12:41:52;100568.38;;;36.77;22.91
11395;BME280;5753;54.402;10.220;2023-08-30T12:44:18;100568.50;;;37.39;22.66
11395;BME280;5753;54.402;10.220;2023-08-30T12:46:44;100570.34;;;38.34;21.60
11395;BME280;5753;54.402;10.220;2023-08-30T12:49:10;100576.16;;;39.22;20.39
11395;BME280;5753;54.402;10.220;2023-08-30T12:51:36;100574.69;;;37.75;21.19
11395;BME280;5753;54.402;10.220;2023-08-30T12:54:02;100568.56;;;39.17;20.90